sensor_id;sensor_type;location;lat;lon;timestamp;temperature;humidity
28171;DHT22;15458;53.346;-1.688;2023-06-22T00:00:56;15.80;99.90
28171;DHT22;15458;53.346;-1.688;2023-06-22T00:03:23;15.70;99.90
28171;DHT22;15458;53.346;-1.688;2023-06-22T00:05:50;15.70;99.90
28171;DHT22;15458;53.346;-1.688;2023-06-22T00:08:17;15.60;99.90
28171;DHT22;15458;53.346;-1.688;2023-06-22T00:10:43;15.60;99.90
28171;DHT22;15458;53.346;-1.688;2023-06-22T00:13:10;15.60;99.90
28171;DHT22;15458;53.346;-1.688;2023-06-22T00:15:37;15.60;99.90
28171;DHT22;15458;53.346;-1.688;2023-06-22T00:18:04;15.50;99.90
28171;DHT22;15458;53.346;-1.688;2023-06-22T00:20:30;15.50;99.90
28171;DHT22;15458;53.346;-1.688;2023-06-22T00:22:57;15.40;99.90
28171;DHT22;15458;53.346;-1.688;2023-06-22T00:25:23;15.40;99.90
28171;DHT22;15458;53.346;-1.688;2023-06-22T00:27:49;15.40;99.90
28171;DHT22;15458;53.346;-1.688;2023-06-22T00:30:16;15.40;99.90
28171;DHT22;15458;53.346;-1.688;2023-06-22T00:32:42;15.40;99.90
28171;DHT22;15458;53.346;-1.688;2023-06-22T00:35:08;15.40;99.90
28171;DHT22;15458;53.346;-1.688;2023-06-22T00:37:35;15.40;99.90
28171;DHT22;15458;53.346;-1.688;2023-06-22T00:40:02;15.40;99.90
28171;DHT22;15458;53.346;-1.688;2023-06-22T00:42:28;15.30;99.90
28171;DHT22;15458;53.346;-1.688;2023-06-22T00:44:54;15.30;99.90
28171;DHT22;15458;53.346;-1.688;2023-06-22T00:47:20;15.30;99.90
28171;DHT22;15458;53.346;-1.688;2023-06-22T00:49:47;15.30;99.90
28171;DHT22;15458;53.346;-1.688;2023-06-22T00:52:14;15.20;99.90
28171;DHT22;15458;53.346;-1.688;2023-06-22T00:54:47;15.20;99.90
28171;DHT22;15458;53.346;-1.688;2023-06-22T00:57:15;15.20;99.90
28171;DHT22;15458;53.346;-1.688;2023-06-22T00:59:44;15.20;99.90
28171;DHT22;15458;53.346;-1.688;2023-06-22T01:02:10;15.20;99.90
28171;DHT22;15458;53.346;-1.688;2023-06-22T01:04:37;15.10;99.90
28171;DHT22;15458;53.346;-1.688;2023-06-22T01:10:36;15.10;99.90
28171;DHT22;15458;53.346;-1.688;2023-06-22T01:13:10;15.00;99.90
28171;DHT22;15458;53.346;-1.688;2023-06-22T01:15:42;15.00;99.90
28171;DHT22;15458;53.346;-1.688;2023-06-22T01:18:09;15.00;99.90
28171;DHT22;15458;53.346;-1.688;2023-06-22T01:20:37;15.00;99.90
28171;DHT22;15458;53.346;-1.688;2023-06-22T01:23:20;15.00;99.90
28171;DHT22;15458;53.346;-1.688;2023-06-22T01:25:59;15.00;99.90
28171;DHT22;15458;53.346;-1.688;2023-06-22T01:28:50;15.00;99.90
28171;DHT22;15458;53.346;-1.688;2023-06-22T01:31:27;15.00;99.90
28171;DHT22;15458;53.346;-1.688;2023-06-22T01:33:58;15.00;99.90
28171;DHT22;15458;53.346;-1.688;2023-06-22T01:36:26;15.00;99.90
28171;DHT22;15458;53.346;-1.688;2023-06-22T01:38:53;15.00;99.90
28171;DHT22;15458;53.346;-1.688;2023-06-22T01:41:20;15.00;99.90
28171;DHT22;15458;53.346;-1.688;2023-06-22T01:43:47;15.00;99.90
28171;DHT22;15458;53.346;-1.688;2023-06-22T01:46:13;15.00;99.90
28171;DHT22;15458;53.346;-1.688;2023-06-22T01:48:40;15.00;99.90
28171;DHT22;15458;53.346;-1.688;2023-06-22T01:51:06;15.00;99.90
28171;DHT22;15458;53.346;-1.688;2023-06-22T01:53:32;15.00;99.90
28171;DHT22;15458;53.346;-1.688;2023-06-22T01:55:58;15.00;99.90
28171;DHT22;15458;53.346;-1.688;2023-06-22T01:58:27;14.90;99.90
28171;DHT22;15458;53.346;-1.688;2023-06-22T02:01:12;15.00;99.90
28171;DHT22;15458;53.346;-1.688;2023-06-22T02:03:48;15.00;99.90
28171;DHT22;15458;53.346;-1.688;2023-06-22T02:06:35;14.90;99.90
28171;DHT22;15458;53.346;-1.688;2023-06-22T02:09:07;14.90;99.90
28171;DHT22;15458;53.346;-1.688;2023-06-22T02:11:35;14.90;99.90
28171;DHT22;15458;53.346;-1.688;2023-06-22T02:14:01;14.80;99.90
28171;DHT22;15458;53.346;-1.688;2023-06-22T02:16:28;14.80;99.90
28171;DHT22;15458;53.346;-1.688;2023-06-22T02:18:57;14.80;99.90
28171;DHT22;15458;53.346;-1.688;2023-06-22T02:21:29;14.80;99.90
28171;DHT22;15458;53.346;-1.688;2023-06-22T02:23:55;14.80;99.90
28171;DHT22;15458;53.346;-1.688;2023-06-22T02:26:20;14.80;99.90
28171;DHT22;15458;53.346;-1.688;2023-06-22T02:28:46;14.80;99.90
28171;DHT22;15458;53.346;-1.688;2023-06-22T02:31:12;14.80;99.90
28171;DHT22;15458;53.346;-1.688;2023-06-22T02:33:37;14.80;99.90
28171;DHT22;15458;53.346;-1.688;2023-06-22T02:36:04;14.80;99.90
28171;DHT22;15458;53.346;-1.688;2023-06-22T02:38:31;14.80;99.90
28171;DHT22;15458;53.346;-1.688;2023-06-22T02:40:58;14.80;99.90
28171;DHT22;15458;53.346;-1.688;2023-06-22T02:43:24;14.80;99.90
28171;DHT22;15458;53.346;-1.688;2023-06-22T02:45:50;14.80;99.90
28171;DHT22;15458;53.346;-1.688;2023-06-22T02:48:15;14.90;99.90
28171;DHT22;15458;53.346;-1.688;2023-06-22T02:50:41;14.80;99.90
28171;DHT22;15458;53.346;-1.688;2023-06-22T02:53:07;14.90;99.90
28171;DHT22;15458;53.346;-1.688;2023-06-22T02:55:32;14.90;99.90
28171;DHT22;15458;53.346;-1.688;2023-06-22T02:57:58;14.80;99.90
28171;DHT22;15458;53.346;-1.688;2023-06-22T03:00:25;14.80;99.90
28171;DHT22;15458;53.346;-1.688;2023-06-22T03:02:56;14.80;99.90
28171;DHT22;15458;53.346;-1.688;2023-06-22T03:05:23;14.90;99.90
28171;DHT22;15458;53.346;-1.688;2023-06-22T03:07:48;14.80;99.90
28171;DHT22;15458;53.346;-1.688;2023-06-22T03:10:15;14.80;99.90
28171;DHT22;15458;53.346;-1.688;2023-06-22T03:12:42;14.80;99.90
28171;DHT22;15458;53.346;-1.688;2023-06-22T03:15:09;14.80;99.90
28171;DHT22;15458;53.346;-1.688;2023-06-22T03:17:36;14.70;99.90
28171;DHT22;15458;53.346;-1.688;2023-06-22T03:20:03;14.70;99.90
28171;DHT22;15458;53.346;-1.688;2023-06-22T03:22:37;14.70;99.90
28171;DHT22;15458;53.346;-1.688;2023-06-22T03:25:03;14.70;99.90
28171;DHT22;15458;53.346;-1.688;2023-06-22T03:27:29;14.70;99.90
28171;DHT22;15458;53.346;-1.688;2023-06-22T03:29:57;14.70;99.90
28171;DHT22;15458;53.346;-1.688;2023-06-22T03:32:22;14.80;99.90
28171;DHT22;15458;53.346;-1.688;2023-06-22T03:34:48;14.70;99.90
28171;DHT22;15458;53.346;-1.688;2023-06-22T03:37:14;14.70;99.90
28171;DHT22;15458;53.346;-1.688;2023-06-22T03:39:41;14.70;99.90
28171;DHT22;15458;53.346;-1.688;2023-06-22T03:42:07;14.70;99.90
28171;DHT22;15458;53.346;-1.688;2023-06-22T03:44:33;14.70;99.90
28171;DHT22;15458;53.346;-1.688;2023-06-22T03:46:59;14.60;99.90
28171;DHT22;15458;53.346;-1.688;2023-06-22T03:49:24;14.60;99.90
28171;DHT22;15458;53.346;-1.688;2023-06-22T03:51:50;14.60;99.90
28171;DHT22;15458;53.346;-1.688;2023-06-22T03:54:15;14.60;99.90
28171;DHT22;15458;53.346;-1.688;2023-06-22T03:56:41;14.60;99.90
28171;DHT22;15458;53.346;-1.688;2023-06-22T03:59:07;14.60;99.90
28171;DHT22;15458;53.346;-1.688;2023-06-22T04:01:32;14.60;99.90
28171;DHT22;15458;53.346;-1.688;2023-06-22T04:03:58;14.60;99.90
28171;DHT22;15458;53.346;-1.688;2023-06-22T04:06:23;14.60;99.90
28171;DHT22;15458;53.346;-1.688;2023-06-22T04:08:49;14.60;99.90
28171;DHT22;15458;53.346;-1.688;2023-06-22T04:11:17;14.60;99.90
28171;DHT22;15458;53.346;-1.688;2023-06-22T04:13:44;14.60;99.90
28171;DHT22;15458;53.346;-1.688;2023-06-22T04:16:09;14.60;99.90
28171;DHT22;15458;53.346;-1.688;2023-06-22T04:18:35;14.50;99.90
28171;DHT22;15458;53.346;-1.688;2023-06-22T04:21:01;14.60;99.90
28171;DHT22;15458;53.346;-1.688;2023-06-22T04:23:27;14.50;99.90
28171;DHT22;15458;53.346;-1.688;2023-06-22T04:25:53;14.50;99.90
28171;DHT22;15458;53.346;-1.688;2023-06-22T04:28:18;14.50;99.90
28171;DHT22;15458;53.346;-1.688;2023-06-22T04:30:44;14.40;99.90
28171;DHT22;15458;53.346;-1.688;2023-06-22T04:33:16;14.40;99.90
28171;DHT22;15458;53.346;-1.688;2023-06-22T04:35:45;14.40;99.90
28171;DHT22;15458;53.346;-1.688;2023-06-22T04:38:12;14.40;99.90
28171;DHT22;15458;53.346;-1.688;2023-06-22T04:40:39;14.40;99.90
28171;DHT22;15458;53.346;-1.688;2023-06-22T04:43:05;14.40;99.90
28171;DHT22;15458;53.346;-1.688;2023-06-22T04:45:34;14.30;99.90
28171;DHT22;15458;53.346;-1.688;2023-06-22T04:48:03;14.30;99.90
28171;DHT22;15458;53.346;-1.688;2023-06-22T04:50:29;14.30;99.90
28171;DHT22;15458;53.346;-1.688;2023-06-22T04:52:55;14.30;99.90
28171;DHT22;15458;53.346;-1.688;2023-06-22T04:55:20;14.40;99.90
28171;DHT22;15458;53.346;-1.688;2023-06-22T04:57:47;14.30;99.90
28171;DHT22;15458;53.346;-1.688;2023-06-22T05:00:23;14.40;99.90
28171;DHT22;15458;53.346;-1.688;2023-06-22T05:02:49;14.40;99.90
28171;DHT22;15458;53.346;-1.688;2023-06-22T05:05:15;14.30;99.90
28171;DHT22;15458;53.346;-1.688;2023-06-22T05:07:45;14.30;99.90
28171;DHT22;15458;53.346;-1.688;2023-06-22T05:10:13;14.30;99.90
28171;DHT22;15458;53.346;-1.688;2023-06-22T05:12:40;14.30;99.90
28171;DHT22;15458;53.346;-1.688;2023-06-22T05:15:07;14.30;99.90
28171;DHT22;15458;53.346;-1.688;2023-06-22T05:17:33;14.30;99.90
28171;DHT22;15458;53.346;-1.688;2023-06-22T05:19:59;14.30;99.90
28171;DHT22;15458;53.346;-1.688;2023-06-22T05:22:25;14.30;99.90
28171;DHT22;15458;53.346;-1.688;2023-06-22T05:24:50;14.40;99.90
28171;DHT22;15458;53.346;-1.688;2023-06-22T05:27:16;14.30;99.90
28171;DHT22;15458;53.346;-1.688;2023-06-22T05:29:42;14.30;99.90
28171;DHT22;15458;53.346;-1.688;2023-06-22T05:32:08;14.30;99.90
28171;DHT22;15458;53.346;-1.688;2023-06-22T05:34:34;14.30;99.90
28171;DHT22;15458;53.346;-1.688;2023-06-22T05:36:59;14.30;99.90
28171;DHT22;15458;53.346;-1.688;2023-06-22T05:39:25;14.40;99.90
28171;DHT22;15458;53.346;-1.688;2023-06-22T05:41:51;14.40;99.90
28171;DHT22;15458;53.346;-1.688;2023-06-22T05:44:18;14.40;99.90
28171;DHT22;15458;53.346;-1.688;2023-06-22T05:46:44;14.40;99.90
28171;DHT22;15458;53.346;-1.688;2023-06-22T05:49:15;14.40;99.90
28171;DHT22;15458;53.346;-1.688;2023-06-22T05:51:41;14.50;99.90
28171;DHT22;15458;53.346;-1.688;2023-06-22T05:54:07;14.60;99.90
28171;DHT22;15458;53.346;-1.688;2023-06-22T05:56:38;14.60;99.90
28171;DHT22;15458;53.346;-1.688;2023-06-22T05:59:04;14.70;99.90
28171;DHT22;15458;53.346;-1.688;2023-06-22T06:01:30;14.70;99.90
28171;DHT22;15458;53.346;-1.688;2023-06-22T06:04:00;14.80;99.90
28171;DHT22;15458;53.346;-1.688;2023-06-22T06:06:25;14.90;99.90
28171;DHT22;15458;53.346;-1.688;2023-06-22T06:08:54;15.00;99.90
28171;DHT22;15458;53.346;-1.688;2023-06-22T06:11:19;15.00;99.90
28171;DHT22;15458;53.346;-1.688;2023-06-22T06:13:45;15.10;99.90
28171;DHT22;15458;53.346;-1.688;2023-06-22T06:16:11;15.10;99.90
28171;DHT22;15458;53.346;-1.688;2023-06-22T06:18:36;15.20;99.90
28171;DHT22;15458;53.346;-1.688;2023-06-22T06:21:03;15.30;99.90
28171;DHT22;15458;53.346;-1.688;2023-06-22T06:23:28;15.40;99.90
28171;DHT22;15458;53.346;-1.688;2023-06-22T06:25:54;15.40;99.90
28171;DHT22;15458;53.346;-1.688;2023-06-22T06:28:20;15.50;99.90
28171;DHT22;15458;53.346;-1.688;2023-06-22T06:30:45;15.50;99.90
28171;DHT22;15458;53.346;-1.688;2023-06-22T06:33:13;15.60;99.90
28171;DHT22;15458;53.346;-1.688;2023-06-22T06:35:38;15.70;99.90
28171;DHT22;15458;53.346;-1.688;2023-06-22T06:38:04;15.80;99.90
28171;DHT22;15458;53.346;-1.688;2023-06-22T06:40:30;15.90;99.90
28171;DHT22;15458;53.346;-1.688;2023-06-22T06:42:56;15.90;99.90
28171;DHT22;15458;53.346;-1.688;2023-06-22T06:45:23;16.00;99.90
28171;DHT22;15458;53.346;-1.688;2023-06-22T06:47:50;16.00;99.90
28171;DHT22;15458;53.346;-1.688;2023-06-22T06:50:16;16.10;99.90
28171;DHT22;15458;53.346;-1.688;2023-06-22T06:52:42;16.20;99.90
28171;DHT22;15458;53.346;-1.688;2023-06-22T06:55:09;16.30;99.90
28171;DHT22;15458;53.346;-1.688;2023-06-22T06:57:39;16.30;99.90
28171;DHT22;15458;53.346;-1.688;2023-06-22T07:00:06;16.40;99.90
28171;DHT22;15458;53.346;-1.688;2023-06-22T07:02:38;16.50;99.90
28171;DHT22;15458;53.346;-1.688;2023-06-22T07:05:05;16.60;99.90
28171;DHT22;15458;53.346;-1.688;2023-06-22T07:07:31;16.60;99.90
28171;DHT22;15458;53.346;-1.688;2023-06-22T07:09:57;16.70;99.90
28171;DHT22;15458;53.346;-1.688;2023-06-22T07:12:23;16.80;99.90
28171;DHT22;15458;53.346;-1.688;2023-06-22T07:14:49;16.90;99.90
28171;DHT22;15458;53.346;-1.688;2023-06-22T07:17:15;17.00;99.90
28171;DHT22;15458;53.346;-1.688;2023-06-22T07:19:41;17.10;99.90
28171;DHT22;15458;53.346;-1.688;2023-06-22T07:22:07;17.20;99.90
28171;DHT22;15458;53.346;-1.688;2023-06-22T07:24:33;17.30;99.90
28171;DHT22;15458;53.346;-1.688;2023-06-22T07:26:59;17.40;99.90
28171;DHT22;15458;53.346;-1.688;2023-06-22T07:29:25;17.40;99.90
28171;DHT22;15458;53.346;-1.688;2023-06-22T07:31:52;17.50;99.90
28171;DHT22;15458;53.346;-1.688;2023-06-22T07:34:18;17.60;99.90
28171;DHT22;15458;53.346;-1.688;2023-06-22T07:36:44;17.70;99.90
28171;DHT22;15458;53.346;-1.688;2023-06-22T07:39:10;17.70;99.90
28171;DHT22;15458;53.346;-1.688;2023-06-22T07:41:35;17.80;99.90
28171;DHT22;15458;53.346;-1.688;2023-06-22T07:44:02;17.90;99.90
28171;DHT22;15458;53.346;-1.688;2023-06-22T07:46:29;17.90;99.90
28171;DHT22;15458;53.346;-1.688;2023-06-22T07:48:56;18.00;99.90
28171;DHT22;15458;53.346;-1.688;2023-06-22T07:51:22;18.00;99.90
28171;DHT22;15458;53.346;-1.688;2023-06-22T07:53:48;18.10;99.90
28171;DHT22;15458;53.346;-1.688;2023-06-22T07:56:14;18.20;99.90
28171;DHT22;15458;53.346;-1.688;2023-06-22T07:58:44;18.30;99.90
28171;DHT22;15458;53.346;-1.688;2023-06-22T08:01:11;18.50;99.90
28171;DHT22;15458;53.346;-1.688;2023-06-22T08:03:37;18.70;99.90
28171;DHT22;15458;53.346;-1.688;2023-06-22T08:06:03;18.90;99.90
28171;DHT22;15458;53.346;-1.688;2023-06-22T08:08:29;19.10;99.90
28171;DHT22;15458;53.346;-1.688;2023-06-22T08:10:54;19.30;99.90
28171;DHT22;15458;53.346;-1.688;2023-06-22T08:13:20;19.40;99.90
28171;DHT22;15458;53.346;-1.688;2023-06-22T08:15:46;19.50;99.90
28171;DHT22;15458;53.346;-1.688;2023-06-22T08:18:11;19.60;99.90
28171;DHT22;15458;53.346;-1.688;2023-06-22T08:20:37;19.70;99.90
28171;DHT22;15458;53.346;-1.688;2023-06-22T08:23:03;19.90;99.90
28171;DHT22;15458;53.346;-1.688;2023-06-22T08:25:35;20.10;99.90
28171;DHT22;15458;53.346;-1.688;2023-06-22T08:28:01;20.30;99.90
28171;DHT22;15458;53.346;-1.688;2023-06-22T08:30:27;20.40;99.90
28171;DHT22;15458;53.346;-1.688;2023-06-22T08:32:53;20.60;99.90
28171;DHT22;15458;53.346;-1.688;2023-06-22T08:35:23;20.70;99.90
28171;DHT22;15458;53.346;-1.688;2023-06-22T08:37:49;20.70;99.90
28171;DHT22;15458;53.346;-1.688;2023-06-22T08:40:19;20.80;99.90
28171;DHT22;15458;53.346;-1.688;2023-06-22T08:42:46;20.90;99.90
28171;DHT22;15458;53.346;-1.688;2023-06-22T08:45:13;20.90;99.90
28171;DHT22;15458;53.346;-1.688;2023-06-22T08:47:40;21.00;99.90
28171;DHT22;15458;53.346;-1.688;2023-06-22T08:50:07;21.00;99.90
28171;DHT22;15458;53.346;-1.688;2023-06-22T08:52:34;21.10;99.90
28171;DHT22;15458;53.346;-1.688;2023-06-22T08:54:59;21.10;99.90
28171;DHT22;15458;53.346;-1.688;2023-06-22T08:57:26;21.10;99.90
28171;DHT22;15458;53.346;-1.688;2023-06-22T08:59:52;21.20;99.90
28171;DHT22;15458;53.346;-1.688;2023-06-22T09:02:19;21.20;99.90
28171;DHT22;15458;53.346;-1.688;2023-06-22T09:04:46;21.30;99.90
28171;DHT22;15458;53.346;-1.688;2023-06-22T09:07:12;21.30;99.90
28171;DHT22;15458;53.346;-1.688;2023-06-22T09:09:37;21.50;99.90
28171;DHT22;15458;53.346;-1.688;2023-06-22T09:12:03;21.50;99.90
28171;DHT22;15458;53.346;-1.688;2023-06-22T09:14:29;21.60;99.90
28171;DHT22;15458;53.346;-1.688;2023-06-22T09:16:55;21.80;99.90
28171;DHT22;15458;53.346;-1.688;2023-06-22T09:19:20;22.00;99.90
28171;DHT22;15458;53.346;-1.688;2023-06-22T09:21:46;22.00;99.90
28171;DHT22;15458;53.346;-1.688;2023-06-22T09:24:12;22.00;99.10
28171;DHT22;15458;53.346;-1.688;2023-06-22T09:26:37;22.10;98.30
28171;DHT22;15458;53.346;-1.688;2023-06-22T09:29:05;22.20;97.20
28171;DHT22;15458;53.346;-1.688;2023-06-22T09:31:31;22.40;96.50
28171;DHT22;15458;53.346;-1.688;2023-06-22T09:33:57;22.60;95.80
28171;DHT22;15458;53.346;-1.688;2023-06-22T09:36:22;22.80;95.50
28171;DHT22;15458;53.346;-1.688;2023-06-22T09:38:49;23.10;94.80
28171;DHT22;15458;53.346;-1.688;2023-06-22T09:41:21;23.20;93.70
28171;DHT22;15458;53.346;-1.688;2023-06-22T09:43:47;23.40;92.90
28171;DHT22;15458;53.346;-1.688;2023-06-22T09:46:16;23.50;92.10
28171;DHT22;15458;53.346;-1.688;2023-06-22T09:48:42;23.70;91.40
28171;DHT22;15458;53.346;-1.688;2023-06-22T09:51:07;23.90;91.20
28171;DHT22;15458;53.346;-1.688;2023-06-22T09:53:33;24.10;90.30
28171;DHT22;15458;53.346;-1.688;2023-06-22T09:56:00;24.10;89.60
28171;DHT22;15458;53.346;-1.688;2023-06-22T09:58:27;24.30;88.40
28171;DHT22;15458;53.346;-1.688;2023-06-22T10:00:53;24.40;88.10
28171;DHT22;15458;53.346;-1.688;2023-06-22T10:03:20;24.60;86.80
28171;DHT22;15458;53.346;-1.688;2023-06-22T10:05:45;24.80;85.50
28171;DHT22;15458;53.346;-1.688;2023-06-22T10:08:11;24.80;84.40
28171;DHT22;15458;53.346;-1.688;2023-06-22T10:10:37;25.00;84.00
28171;DHT22;15458;53.346;-1.688;2023-06-22T10:13:08;25.00;82.10
28171;DHT22;15458;53.346;-1.688;2023-06-22T10:15:37;25.00;81.80
28171;DHT22;15458;53.346;-1.688;2023-06-22T10:18:03;25.00;81.50
28171;DHT22;15458;53.346;-1.688;2023-06-22T10:20:29;25.00;81.20
28171;DHT22;15458;53.346;-1.688;2023-06-22T10:22:54;24.80;81.00
28171;DHT22;15458;53.346;-1.688;2023-06-22T10:25:21;24.80;81.20
28171;DHT22;15458;53.346;-1.688;2023-06-22T10:27:47;24.80;81.40
28171;DHT22;15458;53.346;-1.688;2023-06-22T10:30:14;24.80;81.40
28171;DHT22;15458;53.346;-1.688;2023-06-22T10:32:42;24.80;81.30
28171;DHT22;15458;53.346;-1.688;2023-06-22T10:35:11;24.80;81.10
28171;DHT22;15458;53.346;-1.688;2023-06-22T10:37:39;24.60;81.00
28171;DHT22;15458;53.346;-1.688;2023-06-22T10:40:05;24.40;81.40
28171;DHT22;15458;53.346;-1.688;2023-06-22T10:42:31;24.20;81.90
28171;DHT22;15458;53.346;-1.688;2023-06-22T10:44:57;24.00;82.90
28171;DHT22;15458;53.346;-1.688;2023-06-22T10:47:22;23.70;84.40
28171;DHT22;15458;53.346;-1.688;2023-06-22T10:49:48;23.50;85.90
28171;DHT22;15458;53.346;-1.688;2023-06-22T10:52:13;23.40;86.90
28171;DHT22;15458;53.346;-1.688;2023-06-22T10:54:39;23.30;87.70
28171;DHT22;15458;53.346;-1.688;2023-06-22T10:57:05;23.20;88.50
28171;DHT22;15458;53.346;-1.688;2023-06-22T10:59:31;23.20;88.90
28171;DHT22;15458;53.346;-1.688;2023-06-22T11:01:57;23.20;89.70
28171;DHT22;15458;53.346;-1.688;2023-06-22T11:04:23;23.20;90.10
28171;DHT22;15458;53.346;-1.688;2023-06-22T11:06:49;23.30;90.40
28171;DHT22;15458;53.346;-1.688;2023-06-22T11:09:15;23.30;90.60
28171;DHT22;15458;53.346;-1.688;2023-06-22T11:11:50;23.30;91.00
28171;DHT22;15458;53.346;-1.688;2023-06-22T11:14:19;23.30;91.10
28171;DHT22;15458;53.346;-1.688;2023-06-22T11:16:45;23.20;91.10
28171;DHT22;15458;53.346;-1.688;2023-06-22T11:19:12;23.10;91.10
28171;DHT22;15458;53.346;-1.688;2023-06-22T11:21:38;23.10;91.00
28171;DHT22;15458;53.346;-1.688;2023-06-22T11:24:04;23.00;90.90
28171;DHT22;15458;53.346;-1.688;2023-06-22T11:26:29;22.90;90.80
28171;DHT22;15458;53.346;-1.688;2023-06-22T11:28:55;22.90;91.00
28171;DHT22;15458;53.346;-1.688;2023-06-22T11:31:21;22.90;91.10
28171;DHT22;15458;53.346;-1.688;2023-06-22T11:33:46;22.80;91.10
28171;DHT22;15458;53.346;-1.688;2023-06-22T11:36:14;23.00;91.10
28171;DHT22;15458;53.346;-1.688;2023-06-22T11:38:40;23.10;91.10
28171;DHT22;15458;53.346;-1.688;2023-06-22T11:41:09;23.10;91.20
28171;DHT22;15458;53.346;-1.688;2023-06-22T11:43:35;23.10;91.10
28171;DHT22;15458;53.346;-1.688;2023-06-22T11:46:02;23.10;91.10
28171;DHT22;15458;53.346;-1.688;2023-06-22T11:48:28;23.30;91.30
28171;DHT22;15458;53.346;-1.688;2023-06-22T11:50:54;23.60;91.50
28171;DHT22;15458;53.346;-1.688;2023-06-22T11:53:25;24.00;91.10
28171;DHT22;15458;53.346;-1.688;2023-06-22T11:55:51;24.40;90.10
28171;DHT22;15458;53.346;-1.688;2023-06-22T11:58:18;24.80;88.40
28171;DHT22;15458;53.346;-1.688;2023-06-22T12:00:43;25.10;86.30
28171;DHT22;15458;53.346;-1.688;2023-06-22T12:03:10;25.50;84.80
28171;DHT22;15458;53.346;-1.688;2023-06-22T12:05:37;25.70;82.90
28171;DHT22;15458;53.346;-1.688;2023-06-22T12:08:03;25.80;81.80
28171;DHT22;15458;53.346;-1.688;2023-06-22T12:10:29;25.90;81.70
28171;DHT22;15458;53.346;-1.688;2023-06-22T12:12:55;26.00;81.50
28171;DHT22;15458;53.346;-1.688;2023-06-22T12:15:20;26.10;81.20
28171;DHT22;15458;53.346;-1.688;2023-06-22T12:17:46;26.40;80.40
28171;DHT22;15458;53.346;-1.688;2023-06-22T12:20:13;26.70;78.30
28171;DHT22;15458;53.346;-1.688;2023-06-22T12:22:40;26.80;76.70
28171;DHT22;15458;53.346;-1.688;2023-06-22T12:25:07;26.90;76.00
28171;DHT22;15458;53.346;-1.688;2023-06-22T12:27:33;26.90;75.00
28171;DHT22;15458;53.346;-1.688;2023-06-22T12:29:58;26.70;74.40
28171;DHT22;15458;53.346;-1.688;2023-06-22T12:32:24;26.50;74.40
28171;DHT22;15458;53.346;-1.688;2023-06-22T12:34:51;26.30;74.90
28171;DHT22;15458;53.346;-1.688;2023-06-22T12:37:16;26.00;75.60
28171;DHT22;15458;53.346;-1.688;2023-06-22T12:39:42;25.90;76.50
28171;DHT22;15458;53.346;-1.688;2023-06-22T12:42:08;25.90;77.00
28171;DHT22;15458;53.346;-1.688;2023-06-22T12:44:38;25.80;77.20
28171;DHT22;15458;53.346;-1.688;2023-06-22T12:47:04;25.70;77.60
28171;DHT22;15458;53.346;-1.688;2023-06-22T12:49:30;25.70;78.00
28171;DHT22;15458;53.346;-1.688;2023-06-22T12:51:56;25.60;78.70
28171;DHT22;15458;53.346;-1.688;2023-06-22T12:54:21;25.60;79.00
28171;DHT22;15458;53.346;-1.688;2023-06-22T12:56:47;25.60;79.20
28171;DHT22;15458;53.346;-1.688;2023-06-22T12:59:13;25.50;79.40
28171;DHT22;15458;53.346;-1.688;2023-06-22T13:01:38;25.50;79.20
28171;DHT22;15458;53.346;-1.688;2023-06-22T13:04:04;25.40;79.30
28171;DHT22;15458;53.346;-1.688;2023-06-22T13:06:30;25.40;79.40
28171;DHT22;15458;53.346;-1.688;2023-06-22T13:08:56;25.50;79.10
28171;DHT22;15458;53.346;-1.688;2023-06-22T13:11:22;25.40;78.60
28171;DHT22;15458;53.346;-1.688;2023-06-22T13:13:48;25.30;78.10
28171;DHT22;15458;53.346;-1.688;2023-06-22T13:16:14;25.30;77.80
28171;DHT22;15458;53.346;-1.688;2023-06-22T13:18:39;25.30;77.50
28171;DHT22;15458;53.346;-1.688;2023-06-22T13:21:05;25.30;77.50
28171;DHT22;15458;53.346;-1.688;2023-06-22T13:23:31;25.30;77.30
28171;DHT22;15458;53.346;-1.688;2023-06-22T13:25:57;25.10;77.10
28171;DHT22;15458;53.346;-1.688;2023-06-22T13:28:23;25.10;77.50
28171;DHT22;15458;53.346;-1.688;2023-06-22T13:30:49;25.00;77.50
28171;DHT22;15458;53.346;-1.688;2023-06-22T13:33:15;24.90;77.40
28171;DHT22;15458;53.346;-1.688;2023-06-22T13:35:41;24.90;77.20
28171;DHT22;15458;53.346;-1.688;2023-06-22T13:38:10;24.80;77.50
28171;DHT22;15458;53.346;-1.688;2023-06-22T13:40:37;24.80;77.80
28171;DHT22;15458;53.346;-1.688;2023-06-22T13:43:05;24.80;78.00
28171;DHT22;15458;53.346;-1.688;2023-06-22T13:45:31;24.80;77.90
28171;DHT22;15458;53.346;-1.688;2023-06-22T13:47:57;24.70;77.90
28171;DHT22;15458;53.346;-1.688;2023-06-22T13:50:23;24.70;78.10
28171;DHT22;15458;53.346;-1.688;2023-06-22T13:52:48;24.70;78.30
28171;DHT22;15458;53.346;-1.688;2023-06-22T13:55:14;24.70;78.50
28171;DHT22;15458;53.346;-1.688;2023-06-22T13:57:41;24.60;78.60
28171;DHT22;15458;53.346;-1.688;2023-06-22T14:00:07;24.50;78.80
28171;DHT22;15458;53.346;-1.688;2023-06-22T14:02:38;24.40;79.30
28171;DHT22;15458;53.346;-1.688;2023-06-22T14:05:04;24.30;79.70
28171;DHT22;15458;53.346;-1.688;2023-06-22T14:07:29;24.20;80.20
28171;DHT22;15458;53.346;-1.688;2023-06-22T14:09:55;24.10;80.70
28171;DHT22;15458;53.346;-1.688;2023-06-22T14:12:21;23.70;81.50
28171;DHT22;15458;53.346;-1.688;2023-06-22T14:14:47;23.40;82.70
28171;DHT22;15458;53.346;-1.688;2023-06-22T14:17:13;23.30;84.10
28171;DHT22;15458;53.346;-1.688;2023-06-22T14:19:38;23.20;85.00
28171;DHT22;15458;53.346;-1.688;2023-06-22T14:22:04;23.30;85.40
28171;DHT22;15458;53.346;-1.688;2023-06-22T14:24:30;23.30;86.30
28171;DHT22;15458;53.346;-1.688;2023-06-22T14:26:55;23.20;86.00
28171;DHT22;15458;53.346;-1.688;2023-06-22T14:29:22;23.20;86.40
28171;DHT22;15458;53.346;-1.688;2023-06-22T14:31:48;23.20;86.90
28171;DHT22;15458;53.346;-1.688;2023-06-22T14:34:14;23.20;87.30
28171;DHT22;15458;53.346;-1.688;2023-06-22T14:36:40;23.10;87.50
28171;DHT22;15458;53.346;-1.688;2023-06-22T14:39:06;23.00;88.10
28171;DHT22;15458;53.346;-1.688;2023-06-22T14:41:32;22.90;88.60
28171;DHT22;15458;53.346;-1.688;2023-06-22T14:43:57;22.80;89.50
28171;DHT22;15458;53.346;-1.688;2023-06-22T14:46:23;22.70;90.30
28171;DHT22;15458;53.346;-1.688;2023-06-22T14:48:49;22.50;91.00
28171;DHT22;15458;53.346;-1.688;2023-06-22T14:51:16;22.40;91.60
28171;DHT22;15458;53.346;-1.688;2023-06-22T14:53:43;22.40;92.10
28171;DHT22;15458;53.346;-1.688;2023-06-22T14:56:09;22.40;92.50
28171;DHT22;15458;53.346;-1.688;2023-06-22T14:58:35;22.30;92.90
28171;DHT22;15458;53.346;-1.688;2023-06-22T15:01:03;22.20;93.30
28171;DHT22;15458;53.346;-1.688;2023-06-22T15:03:34;22.10;94.10
28171;DHT22;15458;53.346;-1.688;2023-06-22T15:06:02;21.90;95.10
28171;DHT22;15458;53.346;-1.688;2023-06-22T15:08:28;21.80;96.00
28171;DHT22;15458;53.346;-1.688;2023-06-22T15:10:59;21.70;96.80
28171;DHT22;15458;53.346;-1.688;2023-06-22T15:13:27;21.60;97.50
28171;DHT22;15458;53.346;-1.688;2023-06-22T15:15:53;21.50;98.20